sensor_id;sensor_type;location;lat;lon;timestamp;pressure;altitude;pressure_sealevel;temperature;humidity
50394;BME280;36308;46.312;25.288;2023-04-30T00:00:12;95825.41;;;5.69;55.08
50394;BME280;36308;46.312;25.288;2023-04-30T00:02:38;95821.56;;;5.64;55.55
50394;BME280;36308;46.312;25.288;2023-04-30T00:05:04;95824.09;;;5.59;55.64
50394;BME280;36308;46.312;25.288;2023-04-30T00:07:30;95827.81;;;5.58;55.66
50394;BME280;36308;46.312;25.288;2023-04-30T00:09:56;95830.72;;;5.57;55.63
50394;BME280;36308;46.312;25.288;2023-04-30T00:12:22;95819.69;;;5.53;55.92
50394;BME280;36308;46.312;25.288;2023-04-30T00:14:47;95823.88;;;5.49;56.12
50394;BME280;36308;46.312;25.288;2023-04-30T00:17:13;95822.25;;;5.48;56.23
50394;BME280;36308;46.312;25.288;2023-04-30T00:19:39;95828.84;;;5.45;55.85
50394;BME280;36308;46.312;25.288;2023-04-30T00:22:04;95819.44;;;5.43;56.64
50394;BME280;36308;46.312;25.288;2023-04-30T00:24:30;95823.16;;;5.42;55.84
50394;BME280;36308;46.312;25.288;2023-04-30T00:26:55;95819.91;;;5.40;56.36
50394;BME280;36308;46.312;25.288;2023-04-30T00:29:21;95817.69;;;5.37;56.29
50394;BME280;36308;46.312;25.288;2023-04-30T00:31:48;95818.75;;;5.36;56.85
50394;BME280;36308;46.312;25.288;2023-04-30T00:34:13;95824.53;;;5.33;56.97
50394;BME280;36308;46.312;25.288;2023-04-30T00:36:39;95825.59;;;5.32;57.16
50394;BME280;36308;46.312;25.288;2023-04-30T00:39:05;95815.94;;;5.31;57.11
50394;BME280;36308;46.312;25.288;2023-04-30T00:41:31;95817.00;;;5.30;57.13
50394;BME280;36308;46.312;25.288;2023-04-30T00:43:57;95814.78;;;5.26;57.48
50394;BME280;36308;46.312;25.288;2023-04-30T00:46:22;95817.59;;;5.32;57.35
50394;BME280;36308;46.312;25.288;2023-04-30T00:48:48;95813.06;;;5.32;57.32
50394;BME280;36308;46.312;25.288;2023-04-30T00:51:14;95815.94;;;5.31;56.83
50394;BME280;36308;46.312;25.288;2023-04-30T00:53:40;95806.94;;;5.32;57.16
50394;BME280;36308;46.312;25.288;2023-04-30T00:56:07;95801.59;;;5.32;57.12
50394;BME280;36308;46.312;25.288;2023-04-30T00:58:34;95803.22;;;5.33;57.62
50394;BME280;36308;46.312;25.288;2023-04-30T01:01:00;95797.06;;;5.32;57.72
50394;BME280;36308;46.312;25.288;2023-04-30T01:03:27;95810.19;;;5.34;57.82
50394;BME280;36308;46.312;25.288;2023-04-30T01:05:53;95800.09;;;5.36;57.79
50394;BME280;36308;46.312;25.288;2023-04-30T01:08:18;95800.91;;;5.36;57.57
50394;BME280;36308;46.312;25.288;2023-04-30T01:14:06;95798.00;;;5.38;57.66
50394;BME280;36308;46.312;25.288;2023-04-30T01:16:40;95801.25;;;5.40;58.21
50394;BME280;36308;46.312;25.288;2023-04-30T01:30:46;95785.84;;;5.42;58.39
50394;BME280;36308;46.312;25.288;2023-04-30T01:33:12;95790.94;;;5.43;58.07
50394;BME280;36308;46.312;25.288;2023-04-30T01:47:14;95785.38;;;5.45;58.36
50394;BME280;36308;46.312;25.288;2023-04-30T01:52:31;95778.44;;;5.44;57.84
50394;BME280;36308;46.312;25.288;2023-04-30T01:55:07;95778.44;;;5.44;58.35
50394;BME280;36308;46.312;25.288;2023-04-30T01:57:38;95782.13;;;5.43;58.58
50394;BME280;36308;46.312;25.288;2023-04-30T02:00:05;95779.69;;;5.41;58.75
50394;BME280;36308;46.312;25.288;2023-04-30T02:02:34;95780.97;;;5.39;58.12
50394;BME280;36308;46.312;25.288;2023-04-30T02:05:00;95780.38;;;5.37;58.68
50394;BME280;36308;46.312;25.288;2023-04-30T02:07:36;95779.56;;;5.36;58.34
50394;BME280;36308;46.312;25.288;2023-04-30T02:10:05;95767.63;;;5.27;58.96
50394;BME280;36308;46.312;25.288;2023-04-30T02:12:30;95769.63;;;5.32;58.39
50394;BME280;36308;46.312;25.288;2023-04-30T02:14:56;95769.03;;;5.30;58.51
50394;BME280;36308;46.312;25.288;2023-04-30T02:17:21;95767.63;;;5.27;58.95
50394;BME280;36308;46.312;25.288;2023-04-30T02:19:47;95775.84;;;5.25;58.98
50394;BME280;36308;46.312;25.288;2023-04-30T02:22:12;95770.41;;;5.20;58.89
50394;BME280;36308;46.312;25.288;2023-04-30T02:24:38;95774.91;;;5.20;58.83
50394;BME280;36308;46.312;25.288;2023-04-30T02:27:03;95765.75;;;5.16;58.81
50394;BME280;36308;46.312;25.288;2023-04-30T02:29:29;95779.31;;;5.14;58.87
50394;BME280;36308;46.312;25.288;2023-04-30T02:31:57;95785.09;;;5.11;58.81
50394;BME280;36308;46.312;25.288;2023-04-30T02:34:23;95781.28;;;5.07;58.63
50394;BME280;36308;46.312;25.288;2023-04-30T02:36:49;95783.34;;;5.05;58.74
50394;BME280;36308;46.312;25.288;2023-04-30T02:39:15;95782.78;;;5.03;59.28
50394;BME280;36308;46.312;25.288;2023-04-30T02:41:40;95782.41;;;4.99;59.33
50394;BME280;36308;46.312;25.288;2023-04-30T02:44:06;95781.03;;;4.97;59.36
50394;BME280;36308;46.312;25.288;2023-04-30T02:46:31;95785.75;;;4.95;58.96
50394;BME280;36308;46.312;25.288;2023-04-30T02:48:57;95782.97;;;4.90;59.14
50394;BME280;36308;46.312;25.288;2023-04-30T02:51:22;95782.16;;;4.89;58.98
50394;BME280;36308;46.312;25.288;2023-04-30T02:53:48;95783.44;;;4.86;59.58
50394;BME280;36308;46.312;25.288;2023-04-30T02:56:14;95784.44;;;4.85;60.00
50394;BME280;36308;46.312;25.288;2023-04-30T02:58:39;95785.50;;;4.84;59.82
50394;BME280;36308;46.312;25.288;2023-04-30T03:01:05;95782.03;;;4.84;59.70
50394;BME280;36308;46.312;25.288;2023-04-30T03:03:31;95785.94;;;4.81;59.81
50394;BME280;36308;46.312;25.288;2023-04-30T03:05:56;95785.13;;;4.81;60.03
50394;BME280;36308;46.312;25.288;2023-04-30T03:08:24;95779.00;;;4.80;59.94
50394;BME280;36308;46.312;25.288;2023-04-30T03:10:49;95787.22;;;4.79;59.96
50394;BME280;36308;46.312;25.288;2023-04-30T03:13:15;95780.28;;;4.78;59.59
50394;BME280;36308;46.312;25.288;2023-04-30T03:15:40;95788.50;;;4.76;59.89
50394;BME280;36308;46.312;25.288;2023-04-30T03:18:06;95789.28;;;4.77;59.79
50394;BME280;36308;46.312;25.288;2023-04-30T03:20:31;95790.13;;;4.77;60.49
50394;BME280;36308;46.312;25.288;2023-04-30T03:22:57;95792.22;;;4.75;60.38
50394;BME280;36308;46.312;25.288;2023-04-30T03:25:22;95786.88;;;4.75;60.13
50394;BME280;36308;46.312;25.288;2023-04-30T03:27:48;95794.41;;;4.78;60.08
50394;BME280;36308;46.312;25.288;2023-04-30T03:30:13;95789.06;;;4.78;60.01
50394;BME280;36308;46.312;25.288;2023-04-30T03:32:41;95788.84;;;4.80;60.23
50394;BME280;36308;46.312;25.288;2023-04-30T03:35:07;95792.09;;;4.82;60.90
50394;BME280;36308;46.312;25.288;2023-04-30T03:37:32;95796.16;;;4.84;60.61
50394;BME280;36308;46.312;25.288;2023-04-30T03:39:58;95792.44;;;4.85;60.54
50394;BME280;36308;46.312;25.288;2023-04-30T03:42:24;95799.19;;;4.88;61.00
50394;BME280;36308;46.312;25.288;2023-04-30T03:44:49;95797.91;;;4.91;60.70
50394;BME280;36308;46.312;25.288;2023-04-30T03:47:15;95800.09;;;4.94;61.27
50394;BME280;36308;46.312;25.288;2023-04-30T03:49:40;95811.94;;;4.98;60.80
50394;BME280;36308;46.312;25.288;2023-04-30T03:52:06;95806.38;;;4.99;60.75
50394;BME280;36308;46.312;25.288;2023-04-30T03:54:31;95812.09;;;5.03;60.63
50394;BME280;36308;46.312;25.288;2023-04-30T03:57:00;95799.78;;;5.02;61.05
50394;BME280;36308;46.312;25.288;2023-04-30T03:59:30;95803.03;;;5.04;60.55
50394;BME280;36308;46.312;25.288;2023-04-30T04:01:55;95807.34;;;5.05;60.83
50394;BME280;36308;46.312;25.288;2023-04-30T04:04:21;95818.59;;;5.07;60.49
50394;BME280;36308;46.312;25.288;2023-04-30T04:06:46;95814.63;;;5.10;60.19
50394;BME280;36308;46.312;25.288;2023-04-30T04:09:12;95819.16;;;5.09;60.23
50394;BME280;36308;46.312;25.288;2023-04-30T04:11:37;95824.03;;;5.12;60.44
50394;BME280;36308;46.312;25.288;2023-04-30T04:14:03;95815.00;;;5.13;60.22
50394;BME280;36308;46.312;25.288;2023-04-30T04:16:28;95815.59;;;5.15;60.18
50394;BME280;36308;46.312;25.288;2023-04-30T04:18:54;95824.16;;;5.17;60.19
50394;BME280;36308;46.312;25.288;2023-04-30T04:21:19;95823.94;;;5.19;60.38
50394;BME280;36308;46.312;25.288;2023-04-30T04:23:45;95823.69;;;5.20;60.42
50394;BME280;36308;46.312;25.288;2023-04-30T04:26:11;95812.81;;;5.22;60.22
50394;BME280;36308;46.312;25.288;2023-04-30T04:28:36;95820.13;;;5.26;59.84
50394;BME280;36308;46.312;25.288;2023-04-30T04:31:03;95821.75;;;5.28;60.04
50394;BME280;36308;46.312;25.288;2023-04-30T04:33:29;95815.59;;;5.27;60.31
50394;BME280;36308;46.312;25.288;2023-04-30T04:35:55;95810.63;;;5.31;59.61
50394;BME280;36308;46.312;25.288;2023-04-30T04:38:21;95817.13;;;5.35;59.99
50394;BME280;36308;46.312;25.288;2023-04-30T04:40:51;95818.97;;;5.34;59.65
50394;BME280;36308;46.312;25.288;2023-04-30T04:43:17;95825.25;;;5.40;59.72
50394;BME280;36308;46.312;25.288;2023-04-30T04:45:42;95822.91;;;5.43;59.63
50394;BME280;36308;46.312;25.288;2023-04-30T04:48:08;95821.66;;;5.46;59.84
50394;BME280;36308;46.312;25.288;2023-04-30T04:50:33;95827.91;;;5.52;59.87
50394;BME280;36308;46.312;25.288;2023-04-30T04:53:00;95819.91;;;5.52;59.48
50394;BME280;36308;46.312;25.288;2023-04-30T04:58:47;95825.75;;;5.60;59.52
50394;BME280;36308;46.312;25.288;2023-04-30T05:01:13;95822.03;;;5.61;59.53
50394;BME280;36308;46.312;25.288;2023-04-30T05:03:38;95827.22;;;5.68;59.94
50394;BME280;36308;46.312;25.288;2023-04-30T05:06:04;95827.59;;;5.72;59.49
50394;BME280;36308;46.312;25.288;2023-04-30T05:08:30;95818.31;;;5.74;59.77
50394;BME280;36308;46.312;25.288;2023-04-30T05:10:55;95825.59;;;5.79;59.98
50394;BME280;36308;46.312;25.288;2023-04-30T05:13:21;95821.69;;;5.81;59.98
50394;BME280;36308;46.312;25.288;2023-04-30T05:15:49;95815.41;;;5.87;59.86
50394;BME280;36308;46.312;25.288;2023-04-30T05:18:15;95818.19;;;5.93;60.08
50394;BME280;36308;46.312;25.288;2023-04-30T05:20:41;95827.97;;;5.99;60.08
50394;BME280;36308;46.312;25.288;2023-04-30T05:23:06;95827.25;;;6.03;59.95
50394;BME280;36308;46.312;25.288;2023-04-30T05:25:32;95830.63;;;6.11;59.71
50394;BME280;36308;46.312;25.288;2023-04-30T05:27:57;95831.78;;;6.15;60.20
50394;BME280;36308;46.312;25.288;2023-04-30T05:30:23;95829.78;;;6.22;59.90
50394;BME280;36308;46.312;25.288;2023-04-30T05:32:48;95820.84;;;6.28;59.42
50394;BME280;36308;46.312;25.288;2023-04-30T05:35:17;95827.91;;;6.34;59.75
50394;BME280;36308;46.312;25.288;2023-04-30T05:37:43;95824.28;;;6.40;59.63
50394;BME280;36308;46.312;25.288;2023-04-30T05:40:09;95816.97;;;6.47;59.83
50394;BME280;36308;46.312;25.288;2023-04-30T05:42:34;95829.97;;;6.56;59.16
50394;BME280;36308;46.312;25.288;2023-04-30T05:45:01;95827.94;;;6.63;59.21
50394;BME280;36308;46.312;25.288;2023-04-30T05:47:26;95827.56;;;6.71;58.80
50394;BME280;36308;46.312;25.288;2023-04-30T05:49:52;95817.31;;;6.80;58.97
50394;BME280;36308;46.312;25.288;2023-04-30T05:52:17;95817.50;;;6.90;59.20
50394;BME280;36308;46.312;25.288;2023-04-30T05:54:43;95823.53;;;6.97;58.60
50394;BME280;36308;46.312;25.288;2023-04-30T05:57:08;95812.75;;;7.09;58.47
50394;BME280;36308;46.312;25.288;2023-04-30T05:59:34;95813.16;;;7.18;58.33
50394;BME280;36308;46.312;25.288;2023-04-30T06:01:59;95814.63;;;7.25;58.03
50394;BME280;36308;46.312;25.288;2023-04-30T06:04:24;95810.75;;;7.33;57.54
50394;BME280;36308;46.312;25.288;2023-04-30T06:06:50;95821.38;;;7.45;57.51
50394;BME280;36308;46.312;25.288;2023-04-30T06:09:15;95805.47;;;7.55;57.56
50394;BME280;36308;46.312;25.288;2023-04-30T06:11:41;95804.59;;;7.66;57.93
50394;BME280;36308;46.312;25.288;2023-04-30T06:14:08;95807.19;;;7.78;57.69
50394;BME280;36308;46.312;25.288;2023-04-30T06:16:34;95811.38;;;7.91;57.55
50394;BME280;36308;46.312;25.288;2023-04-30T06:18:59;95804.06;;;8.03;57.18
50394;BME280;36308;46.312;25.288;2023-04-30T06:21:25;95796.75;;;8.16;56.67
50394;BME280;36308;46.312;25.288;2023-04-30T06:23:51;95804.94;;;8.31;56.14
50394;BME280;36308;46.312;25.288;2023-04-30T06:26:18;95809.97;;;8.44;56.36
50394;BME280;36308;46.312;25.288;2023-04-30T06:32:05;95815.19;;;8.78;55.66
50394;BME280;36308;46.312;25.288;2023-04-30T06:34:31;95814.78;;;8.92;55.52
50394;BME280;36308;46.312;25.288;2023-04-30T06:36:57;95806.91;;;9.07;54.44
50394;BME280;36308;46.312;25.288;2023-04-30T06:39:22;95813.47;;;9.21;54.06
50394;BME280;36308;46.312;25.288;2023-04-30T06:41:48;95807.19;;;9.38;53.53
50394;BME280;36308;46.312;25.288;2023-04-30T06:44:13;95811.06;;;9.52;53.43
50394;BME280;36308;46.312;25.288;2023-04-30T06:46:39;95800.16;;;9.69;52.74
50394;BME280;36308;46.312;25.288;2023-04-30T06:49:05;95801.34;;;9.83;52.25
50394;BME280;36308;46.312;25.288;2023-04-30T06:51:30;95803.06;;;10.00;52.21
50394;BME280;36308;46.312;25.288;2023-04-30T06:53:56;95807.16;;;10.12;51.78
50394;BME280;36308;46.312;25.288;2023-04-30T06:56:21;95801.34;;;10.26;51.54
50394;BME280;36308;46.312;25.288;2023-04-30T06:58:47;95808.19;;;10.44;51.10
50394;BME280;36308;46.312;25.288;2023-04-30T07:01:14;95812.53;;;10.60;50.93
50394;BME280;36308;46.312;25.288;2023-04-30T07:03:39;95809.13;;;10.75;50.69
50394;BME280;36308;46.312;25.288;2023-04-30T07:06:05;95808.91;;;10.92;50.70
50394;BME280;36308;46.312;25.288;2023-04-30T07:08:30;95809.72;;;11.08;50.47
50394;BME280;36308;46.312;25.288;2023-04-30T07:10:56;95811.91;;;11.26;50.81
50394;BME280;36308;46.312;25.288;2023-04-30T07:13:22;95808.16;;;11.43;50.11
50394;BME280;36308;46.312;25.288;2023-04-30T07:15:47;95814.91;;;11.61;49.59
50394;BME280;36308;46.312;25.288;2023-04-30T07:18:13;95810.34;;;11.77;50.04
50394;BME280;36308;46.312;25.288;2023-04-30T07:20:39;95809.25;;;11.98;49.73
50394;BME280;36308;46.312;25.288;2023-04-30T07:23:05;95808.16;;;12.15;48.92
50394;BME280;36308;46.312;25.288;2023-04-30T07:25:30;95807.84;;;12.31;48.95
50394;BME280;36308;46.312;25.288;2023-04-30T07:27:56;95813.69;;;12.49;49.30
50394;BME280;36308;46.312;25.288;2023-04-30T07:30:22;95808.00;;;12.66;49.19
50394;BME280;36308;46.312;25.288;2023-04-30T07:32:47;95809.78;;;12.86;48.91
50394;BME280;36308;46.312;25.288;2023-04-30T07:35:13;95811.84;;;13.04;48.96
50394;BME280;36308;46.312;25.288;2023-04-30T07:37:39;95804.44;;;13.25;48.52
50394;BME280;36308;46.312;25.288;2023-04-30T07:40:06;95807.28;;;13.49;48.13
50394;BME280;36308;46.312;25.288;2023-04-30T07:42:33;95808.19;;;13.69;47.45
50394;BME280;36308;46.312;25.288;2023-04-30T07:44:58;95805.59;;;13.88;46.87
50394;BME280;36308;46.312;25.288;2023-04-30T07:47:25;95800.59;;;14.05;46.46
50394;BME280;36308;46.312;25.288;2023-04-30T07:49:50;95798.19;;;14.28;45.87
50394;BME280;36308;46.312;25.288;2023-04-30T07:52:16;95807.16;;;14.47;45.06
50394;BME280;36308;46.312;25.288;2023-04-30T07:54:41;95798.91;;;14.63;44.87
50394;BME280;36308;46.312;25.288;2023-04-30T07:57:07;95809.56;;;14.78;44.96
50394;BME280;36308;46.312;25.288;2023-04-30T07:59:32;95816.06;;;14.96;45.10
50394;BME280;36308;46.312;25.288;2023-04-30T08:02:17;95813.94;;;15.17;44.84
50394;BME280;36308;46.312;25.288;2023-04-30T08:04:42;95813.03;;;15.41;44.58
50394;BME280;36308;46.312;25.288;2023-04-30T08:07:08;95805.09;;;15.63;45.11
50394;BME280;36308;46.312;25.288;2023-04-30T08:09:33;95813.88;;;15.93;44.51
50394;BME280;36308;46.312;25.288;2023-04-30T08:12:08;95819.66;;;16.19;44.02
50394;BME280;36308;46.312;25.288;2023-04-30T08:14:34;95808.34;;;16.45;43.42
50394;BME280;36308;46.312;25.288;2023-04-30T08:17:00;95802.81;;;16.64;42.85
50394;BME280;36308;46.312;25.288;2023-04-30T08:19:27;95807.84;;;16.84;42.35
50394;BME280;36308;46.312;25.288;2023-04-30T08:21:52;95806.13;;;17.02;41.93
50394;BME280;36308;46.312;25.288;2023-04-30T08:24:18;95797.66;;;17.17;41.94
50394;BME280;36308;46.312;25.288;2023-04-30T08:26:43;95799.91;;;17.38;41.39
50394;BME280;36308;46.312;25.288;2023-04-30T08:29:09;95793.72;;;17.60;41.60
50394;BME280;36308;46.312;25.288;2023-04-30T08:31:35;95801.03;;;17.82;40.23
50394;BME280;36308;46.312;25.288;2023-04-30T08:34:00;95800.22;;;17.95;39.97
50394;BME280;36308;46.312;25.288;2023-04-30T08:36:26;95796.31;;;18.10;39.62
50394;BME280;36308;46.312;25.288;2023-04-30T08:38:52;95787.38;;;18.18;39.80
50394;BME280;36308;46.312;25.288;2023-04-30T08:41:19;95802.84;;;18.41;39.00
50394;BME280;36308;46.312;25.288;2023-04-30T08:43:47;95796.19;;;18.55;38.37
50394;BME280;36308;46.312;25.288;2023-04-30T08:46:17;95788.25;;;18.68;37.81
50394;BME280;36308;46.312;25.288;2023-04-30T08:48:45;95788.94;;;18.82;37.81
50394;BME280;36308;46.312;25.288;2023-04-30T08:51:12;95792.03;;;18.98;37.03
50394;BME280;36308;46.312;25.288;2023-04-30T08:53:39;95786.94;;;19.14;37.26
50394;BME280;36308;46.312;25.288;2023-04-30T08:56:09;95787.44;;;19.33;37.04
50394;BME280;36308;46.312;25.288;2023-04-30T08:58:34;95789.84;;;19.52;37.25
50394;BME280;36308;46.312;25.288;2023-04-30T09:01:00;95799.00;;;19.74;36.31
50394;BME280;36308;46.312;25.288;2023-04-30T09:03:26;95790.16;;;19.94;36.23
50394;BME280;36308;46.312;25.288;2023-04-30T09:09:14;95790.06;;;20.29;34.45
50394;BME280;36308;46.312;25.288;2023-04-30T09:11:41;95788.91;;;20.39;35.03
50394;BME280;36308;46.312;25.288;2023-04-30T09:14:07;95780.84;;;20.51;35.15
50394;BME280;36308;46.312;25.288;2023-04-30T09:16:47;95783.19;;;20.70;34.68
50394;BME280;36308;46.312;25.288;2023-04-30T09:19:24;95785.50;;;20.89;34.74
50394;BME280;36308;46.312;25.288;2023-04-30T09:24:52;95776.25;;;21.32;33.45
50394;BME280;36308;46.312;25.288;2023-04-30T09:27:22;95775.47;;;21.53;32.57
50394;BME280;36308;46.312;25.288;2023-04-30T09:29:48;95784.84;;;21.64;32.27
50394;BME280;36308;46.312;25.288;2023-04-30T09:32:13;95770.13;;;21.77;32.62
50394;BME280;36308;46.312;25.288;2023-04-30T09:34:39;95765.63;;;21.94;32.12
50394;BME280;36308;46.312;25.288;2023-04-30T09:37:05;95758.38;;;22.10;32.35
50394;BME280;36308;46.312;25.288;2023-04-30T09:39:31;95761.78;;;22.19;30.59
50394;BME280;36308;46.312;25.288;2023-04-30T09:42:10;95759.06;;;22.19;30.78
50394;BME280;36308;46.312;25.288;2023-04-30T09:44:41;95756.16;;;22.25;30.98
50394;BME280;36308;46.312;25.288;2023-04-30T09:47:15;95755.47;;;22.40;30.76
50394;BME280;36308;46.312;25.288;2023-04-30T09:49:50;95753.44;;;22.62;31.34
50394;BME280;36308;46.312;25.288;2023-04-30T09:52:17;95755.72;;;22.84;31.23
50394;BME280;36308;46.312;25.288;2023-04-30T09:54:44;95750.13;;;23.05;31.68
50394;BME280;36308;46.312;25.288;2023-04-30T09:57:12;95751.59;;;23.27;32.06
50394;BME280;36308;46.312;25.288;2023-04-30T09:59:56;95753.56;;;23.55;31.40
50394;BME280;36308;46.312;25.288;2023-04-30T10:02:23;95762.53;;;23.80;31.07
50394;BME280;36308;46.312;25.288;2023-04-30T10:04:54;95765.66;;;23.94;29.99
50394;BME280;36308;46.312;25.288;2023-04-30T10:07:39;95762.13;;;23.94;29.44
50394;BME280;36308;46.312;25.288;2023-04-30T10:10:09;95765.94;;;23.89;29.75
50394;BME280;36308;46.312;25.288;2023-04-30T10:12:38;95753.59;;;23.83;29.53
50394;BME280;36308;46.312;25.288;2023-04-30T10:15:29;95758.03;;;23.88;30.08
50394;BME280;36308;46.312;25.288;2023-04-30T10:18:06;95751.09;;;24.06;30.09
50394;BME280;36308;46.312;25.288;2023-04-30T10:20:35;95756.00;;;24.29;30.02
50394;BME280;36308;46.312;25.288;2023-04-30T10:23:03;95758.16;;;24.51;29.58
50394;BME280;36308;46.312;25.288;2023-04-30T10:25:31;95757.81;;;24.69;29.84
50394;BME280;36308;46.312;25.288;2023-04-30T10:27:56;95753.53;;;24.87;28.74
50394;BME280;36308;46.312;25.288;2023-04-30T10:30:22;95752.97;;;24.97;28.53
50394;BME280;36308;46.312;25.288;2023-04-30T10:35:27;95746.56;;;25.25;28.50
50394;BME280;36308;46.312;25.288;2023-04-30T10:38:20;95750.69;;;25.35;27.83
50394;BME280;36308;46.312;25.288;2023-04-30T10:40:46;95746.72;;;25.32;27.85
50394;BME280;36308;46.312;25.288;2023-04-30T10:43:12;95754.19;;;25.16;27.57
50394;BME280;36308;46.312;25.288;2023-04-30T10:45:41;95751.94;;;24.86;27.03
50394;BME280;36308;46.312;25.288;2023-04-30T10:48:08;95758.53;;;24.66;27.61
50394;BME280;36308;46.312;25.288;2023-04-30T10:50:41;95748.84;;;24.56;27.34
50394;BME280;36308;46.312;25.288;2023-04-30T10:53:08;95751.56;;;24.40;26.88
50394;BME280;36308;46.312;25.288;2023-04-30T10:55:47;95742.69;;;24.31;27.55
50394;BME280;36308;46.312;25.288;2023-04-30T10:58:27;95745.69;;;24.26;27.66
50394;BME280;36308;46.312;25.288;2023-04-30T11:03:34;95747.31;;;24.27;28.73
50394;BME280;36308;46.312;25.288;2023-04-30T11:06:07;95739.78;;;24.39;29.04
50394;BME280;36308;46.312;25.288;2023-04-30T11:08:37;95741.25;;;24.49;28.47
50394;BME280;36308;46.312;25.288;2023-04-30T11:11:02;95738.50;;;24.49;28.64
50394;BME280;36308;46.312;25.288;2023-04-30T11:13:39;95735.38;;;24.51;28.30
50394;BME280;36308;46.312;25.288;2023-04-30T11:16:06;95725.34;;;24.58;28.43
50394;BME280;36308;46.312;25.288;2023-04-30T11:18:32;95714.81;;;24.60;27.49
50394;BME280;36308;46.312;25.288;2023-04-30T11:20:57;95727.22;;;24.54;27.79
50394;BME280;36308;46.312;25.288;2023-04-30T11:23:25;95728.97;;;24.63;28.36
50394;BME280;36308;46.312;25.288;2023-04-30T11:25:54;95722.50;;;24.71;27.78
50394;BME280;36308;46.312;25.288;2023-04-30T11:28:25;95722.69;;;24.78;27.49
50394;BME280;36308;46.312;25.288;2023-04-30T11:30:55;95730.50;;;24.76;27.63
50394;BME280;36308;46.312;25.288;2023-04-30T11:33:24;95727.38;;;24.77;27.60
50394;BME280;36308;46.312;25.288;2023-04-30T11:35:51;95728.09;;;24.74;27.29
50394;BME280;36308;46.312;25.288;2023-04-30T11:38:22;95717.56;;;24.60;26.53
50394;BME280;36308;46.312;25.288;2023-04-30T11:40:51;95726.97;;;24.59;27.31
50394;BME280;36308;46.312;25.288;2023-04-30T11:43:28;95715.44;;;24.70;27.59
50394;BME280;36308;46.312;25.288;2023-04-30T11:46:14;95714.16;;;24.83;26.97
50394;BME280;36308;46.312;25.288;2023-04-30T11:48:44;95720.34;;;24.96;27.79
50394;BME280;36308;46.312;25.288;2023-04-30T11:51:20;95720.31;;;25.12;27.65
50394;BME280;36308;46.312;25.288;2023-04-30T11:53:47;95718.16;;;25.21;26.45
50394;BME280;36308;46.312;25.288;2023-04-30T11:56:13;95719.47;;;25.27;27.27
50394;BME280;36308;46.312;25.288;2023-04-30T11:58:38;95711.97;;;25.44;27.26
50394;BME280;36308;46.312;25.288;2023-04-30T12:01:06;95713.19;;;25.66;27.30
50394;BME280;36308;46.312;25.288;2023-04-30T12:03:40;95715.22;;;25.88;27.24
50394;BME280;36308;46.312;25.288;2023-04-30T12:06:09;95705.78;;;26.09;26.79
50394;BME280;36308;46.312;25.288;2023-04-30T12:08:35;95706.41;;;26.21;26.39
50394;BME280;36308;46.312;25.288;2023-04-30T12:11:00;95706.59;;;26.32;26.63
50394;BME280;36308;46.312;25.288;2023-04-30T12:13:25;95700.03;;;26.40;25.45
50394;BME280;36308;46.312;25.288;2023-04-30T12:15:58;95696.41;;;26.36;25.40
50394;BME280;36308;46.312;25.288;2023-04-30T12:18:24;95696.34;;;26.33;25.61
50394;BME280;36308;46.312;25.288;2023-04-30T12:20:51;95707.69;;;26.28;26.15
50394;BME280;36308;46.312;25.288;2023-04-30T12:23:17;95694.94;;;26.19;25.88
50394;BME280;36308;46.312;25.288;2023-04-30T12:25:43;95697.13;;;26.10;25.67
50394;BME280;36308;46.312;25.288;2023-04-30T12:28:09;95700.22;;;26.05;25.83
50394;BME280;36308;46.312;25.288;2023-04-30T12:30:34;95695.28;;;25.95;25.33
50394;BME280;36308;46.312;25.288;2023-04-30T12:33:00;95709.28;;;25.86;26.04
50394;BME280;36308;46.312;25.288;2023-04-30T12:35:28;95694.56;;;25.78;26.09
50394;BME280;36308;46.312;25.288;2023-04-30T12:38:06;95697.19;;;25.71;25.97
50394;BME280;36308;46.312;25.288;2023-04-30T12:40:34;95695.47;;;25.63;26.02
50394;BME280;36308;46.312;25.288;2023-04-30T12:43:01;95693.72;;;25.55;26.12
50394;BME280;36308;46.312;25.288;2023-04-30T12:48:11;95693.84;;;25.23;25.89
50394;BME280;36308;46.312;25.288;2023-04-30T12:50:37;95698.22;;;25.08;26.35
50394;BME280;36308;46.312;25.288;2023-04-30T12:53:06;95687.34;;;24.96;26.63
50394;BME280;36308;46.312;25.288;2023-04-30T12:55:32;95681.16;;;24.83;26.21
50394;BME280;36308;46.312;25.288;2023-04-30T12:58:10;95684.31;;;24.66;26.66
50394;BME280;36308;46.312;25.288;2023-04-30T13:00:46;95685.13;;;24.50;26.55
50394;BME280;36308;46.312;25.288;2023-04-30T13:03:13;95694.16;;;24.35;26.83
50394;BME280;36308;46.312;25.288;2023-04-30T13:05:48;95688.28;;;24.20;26.77
50394;BME280;36308;46.312;25.288;2023-04-30T13:08:15;95699.69;;;24.07;26.88
50394;BME280;36308;46.312;25.288;2023-04-30T13:10:40;95698.09;;;23.90;27.30
50394;BME280;36308;46.312;25.288;2023-04-30T13:13:06;95700.41;;;23.75;27.82
50394;BME280;36308;46.312;25.288;2023-04-30T13:15:31;95699.13;;;23.57;28.37
50394;BME280;36308;46.312;25.288;2023-04-30T13:17:57;95704.91;;;23.39;29.00
50394;BME280;36308;46.312;25.288;2023-04-30T13:20:23;95699.69;;;23.22;29.58
50394;BME280;36308;46.312;25.288;2023-04-30T13:22:51;95698.41;;;23.04;29.75
50394;BME280;36308;46.312;25.288;2023-04-30T13:25:17;95695.41;;;22.84;29.95
50394;BME280;36308;46.312;25.288;2023-04-30T13:30:46;95697.50;;;22.50;31.07
50394;BME280;36308;46.312;25.288;2023-04-30T13:33:11;95700.25;;;22.38;31.33
50394;BME280;36308;46.312;25.288;2023-04-30T13:35:37;95714.59;;;22.23;31.71
50394;BME280;36308;46.312;25.288;2023-04-30T13:38:04;95714.09;;;22.08;31.95
50394;BME280;36308;46.312;25.288;2023-04-30T13:40:30;95726.00;;;21.91;32.26
50394;BME280;36308;46.312;25.288;2023-04-30T13:42:55;95727.00;;;21.74;32.59
50394;BME280;36308;46.312;25.288;2023-04-30T13:45:21;95724.75;;;21.55;32.82
50394;BME280;36308;46.312;25.288;2023-04-30T13:47:46;95724.09;;;21.37;33.27